Time;durP1;ratioP1;P1;durP2;ratioP2;P2;SDS_P1;SDS_P2;PMS_P1;PMS_P2;Temp;Humidity;BMP_temperature;BMP_pressure;BME280_temperature;BME280_humidity;BME280_pressure;Samples;Min_cycle;Max_cycle;Signal;HPM_P1;HPM_P2
2024/01/19 00:01:35;;;;;;;3.10;1.67;;;;;;;0.90;100.00;95707.84;4977810;28;20210;-69
2024/01/19 00:04:02;;;;;;;5.43;2.27;;;;;;;1.17;100.00;95707.22;4978613;28;21108;-69
2024/01/19 00:06:28;;;;;;;3.73;1.80;;;;;;;0.95;100.00;95713.44;4976976;28;20231;-69
2024/01/19 00:08:57;;;;;;;4.53;2.17;;;;;;;0.79;100.00;95718.31;4979433;28;20284;-69
2024/01/19 00:11:23;;;;;;;2.33;1.40;;;;;;;0.35;100.00;95723.03;4978335;28;20666;-68
2024/01/19 00:13:50;;;;;;;6.17;2.50;;;;;;;0.28;100.00;95723.66;4976691;28;20700;-69
2024/01/19 00:16:18;;;;;;;5.00;2.10;;;;;;;0.37;100.00;95725.47;4978496;28;20202;-69
2024/01/19 00:18:44;;;;;;;5.90;2.90;;;;;;;0.37;100.00;95731.50;4976687;28;20206;-69
2024/01/19 00:21:10;;;;;;;4.30;2.07;;;;;;;0.48;100.00;95734.00;4977495;28;20207;-69
2024/01/19 00:23:37;;;;;;;5.40;2.37;;;;;;;0.71;100.00;95735.47;4978304;28;20692;-68
2024/01/19 00:26:05;;;;;;;6.17;2.97;;;;;;;1.06;100.00;95741.88;4979234;28;20239;-69
2024/01/19 00:28:31;;;;;;;5.93;2.30;;;;;;;0.80;100.00;95740.72;4976651;28;20238;-68
2024/01/19 00:30:58;;;;;;;5.03;2.47;;;;;;;1.15;100.00;95761.03;4977172;28;21074;-69
2024/01/19 00:33:23;;;;;;;8.57;3.27;;;;;;;0.92;100.00;95757.00;4978710;28;20200;-69
2024/01/19 00:35:50;;;;;;;5.83;2.93;;;;;;;0.90;100.00;95756.31;4976336;28;20593;-69
2024/01/19 00:38:16;;;;;;;7.07;2.63;;;;;;;0.96;100.00;95769.56;4976770;28;20954;-69
2024/01/19 00:40:44;;;;;;;6.60;2.57;;;;;;;1.02;100.00;95756.09;4978435;28;20214;-69
2024/01/19 00:43:12;;;;;;;5.43;2.93;;;;;;;1.11;100.00;95757.88;4978195;28;20217;-69
2024/01/19 00:45:39;;;;;;;4.60;2.47;;;;;;;0.97;100.00;95763.44;4977180;28;20688;-69
2024/01/19 00:48:05;;;;;;;6.60;2.43;;;;;;;1.12;100.00;95762.13;4976015;28;20231;-69
2024/01/19 00:50:32;;;;;;;7.93;3.00;;;;;;;1.12;100.00;95767.31;4976866;28;20232;-69
2024/01/19 00:52:58;;;;;;;6.37;3.00;;;;;;;1.28;100.00;95765.03;4978359;28;20675;-69
2024/01/19 00:55:25;;;;;;;4.07;2.33;;;;;;;1.28;100.00;95773.63;4980025;28;20208;-69
2024/01/19 00:57:51;;;;;;;16.97;3.37;;;;;;;1.07;100.00;95776.41;4977959;28;20583;-69
2024/01/19 01:00:19;;;;;;;3.83;2.90;;;;;;;1.17;100.00;95774.69;4978663;28;20203;-69
2024/01/19 01:02:46;;;;;;;6.67;3.17;;;;;;;1.21;100.00;95774.31;4979166;28;20207;-69
2024/01/19 01:05:12;;;;;;;5.93;2.60;;;;;;;1.20;100.00;95783.03;4978358;28;20221;-69
2024/01/19 01:07:39;;;;;;;6.67;3.03;;;;;;;1.10;100.00;95789.16;4977932;28;20293;-69
2024/01/19 01:10:08;;;;;;;5.87;3.00;;;;;;;1.36;100.00;95791.13;4978718;28;21109;-69
2024/01/19 01:12:34;;;;;;;7.53;3.27;;;;;;;1.07;100.00;95792.81;4977123;28;21290;-69
2024/01/19 01:15:01;;;;;;;11.97;3.83;;;;;;;1.27;100.00;95797.09;4978907;28;20341;-69
2024/01/19 01:17:28;;;;;;;6.20;3.20;;;;;;;1.53;100.00;95800.91;4976424;28;20223;-69
2024/01/19 01:19:55;;;;;;;7.40;3.07;;;;;;;1.41;100.00;95810.56;4975657;28;21274;-69
2024/01/19 01:22:22;;;;;;;4.80;2.77;;;;;;;1.29;100.00;95811.59;4977145;28;20206;-69
2024/01/19 01:24:49;;;;;;;7.60;3.47;;;;;;;1.46;100.00;95816.16;4976666;28;20573;-69
2024/01/19 01:27:15;;;;;;;4.03;2.30;;;;;;;1.40;100.00;95829.69;4976886;28;20227;-69
2024/01/19 01:29:42;;;;;;;8.13;3.83;;;;;;;0.97;100.00;95830.88;4976006;28;20235;-69
2024/01/19 01:32:08;;;;;;;7.93;3.27;;;;;;;1.07;100.00;95833.50;4978352;28;20203;-69
2024/01/19 01:34:36;;;;;;;8.73;3.17;;;;;;;1.26;100.00;95836.97;4977080;28;20207;-69
2024/01/19 01:37:02;;;;;;;6.40;3.10;;;;;;;0.86;100.00;95843.09;4976069;28;20241;-68
2024/01/19 01:39:29;;;;;;;7.83;3.17;;;;;;;0.54;100.00;95855.31;4977576;28;20203;-69
2024/01/19 01:41:55;;;;;;;4.90;2.80;;;;;;;0.36;100.00;95856.00;4976206;28;20738;-69
2024/01/19 01:44:22;;;;;;;7.33;2.93;;;;;;;0.49;100.00;95854.88;4976190;28;20215;-69
2024/01/19 01:46:48;;;;;;;8.40;3.37;;;;;;;0.78;100.00;95864.47;4976314;28;20227;-69
2024/01/19 01:49:15;;;;;;;5.73;3.03;;;;;;;1.00;100.00;95861.72;4975032;28;20234;-68
2024/01/19 01:51:43;;;;;;;13.30;3.80;;;;;;;1.22;100.00;95859.78;4975753;28;20219;-69
2024/01/19 01:54:10;;;;;;;12.07;3.30;;;;;;;1.08;100.00;95863.69;4976811;28;20673;-69
2024/01/19 01:56:36;;;;;;;11.10;3.43;;;;;;;1.15;100.00;95864.81;4977303;28;20226;-69
2024/01/19 01:59:03;;;;;;;7.80;3.47;;;;;;;1.19;100.00;95873.97;4976627;28;21347;-69
2024/01/19 02:01:29;;;;;;;10.30;4.30;;;;;;;1.25;100.00;95879.47;4975235;28;20210;-69
2024/01/19 02:03:58;;;;;;;8.80;3.83;;;;;;;1.32;100.00;95885.78;4976957;28;20218;-69
2024/01/19 02:06:25;;;;;;;7.47;3.70;;;;;;;0.95;100.00;95897.59;4976040;28;20213;-69
2024/01/19 02:08:53;;;;;;;6.87;2.67;;;;;;;1.25;100.00;95898.44;4976822;28;20599;-69
2024/01/19 02:11:20;;;;;;;13.00;4.07;;;;;;;1.20;100.00;95905.00;4976319;28;20221;-69
2024/01/19 02:13:46;;;;;;;5.97;3.23;;;;;;;1.25;100.00;95901.03;4975284;28;20210;-69
2024/01/19 02:16:13;;;;;;;7.20;3.30;;;;;;;1.30;100.00;95898.88;4975819;28;20293;-69
2024/01/19 02:18:39;;;;;;;5.67;2.50;;;;;;;0.98;100.00;95906.91;4974908;28;20206;-69
2024/01/19 02:21:06;;;;;;;6.97;2.63;;;;;;;1.28;100.00;95902.56;4976409;28;20210;-69
2024/01/19 02:23:36;;;;;;;5.87;2.60;;;;;;;1.50;100.00;95904.97;4975199;28;20210;-69
2024/01/19 02:26:05;;;;;;;12.90;2.77;;;;;;;1.39;100.00;95912.88;4977229;28;20210;-68
2024/01/19 02:28:32;;;;;;;5.57;2.70;;;;;;;1.07;100.00;95908.72;4975758;28;20313;-69
2024/01/19 02:30:58;;;;;;;5.17;2.50;;;;;;;1.03;100.00;95915.97;4976715;28;20206;-69
2024/01/19 02:33:25;;;;;;;4.30;2.50;;;;;;;1.22;100.00;95916.03;4976483;28;20225;-69
2024/01/19 02:35:51;;;;;;;4.47;2.13;;;;;;;1.33;100.00;95910.78;4975196;28;20669;-69
2024/01/19 02:38:17;;;;;;;4.80;2.40;;;;;;;1.31;100.00;95918.72;4977494;28;20223;-69
2024/01/19 02:40:44;;;;;;;5.57;2.80;;;;;;;1.31;100.00;95926.50;4975967;28;20215;-69
2024/01/19 02:43:12;;;;;;;6.80;2.23;;;;;;;1.53;100.00;95920.31;4977702;28;20207;-69
2024/01/19 02:45:38;;;;;;;4.67;2.57;;;;;;;1.46;100.00;95932.97;4975113;28;20203;-69
2024/01/19 02:48:05;;;;;;;5.33;2.00;;;;;;;1.44;100.00;95921.91;4975226;28;20238;-69
2024/01/19 02:50:32;;;;;;;5.47;2.43;;;;;;;1.54;100.00;95930.56;4976055;28;20203;-69
2024/01/19 02:52:58;;;;;;;8.63;3.00;;;;;;;1.54;100.00;95930.56;4974923;28;20211;-69
2024/01/19 02:55:25;;;;;;;6.13;2.33;;;;;;;1.52;100.00;95940.25;4979726;28;20205;-69
2024/01/19 02:57:51;;;;;;;7.67;2.47;;;;;;;1.57;100.00;95938.09;4979405;28;20231;-69
2024/01/19 03:00:19;;;;;;;5.40;2.80;;;;;;;1.67;100.00;95935.50;4978371;28;20211;-69
2024/01/19 03:02:45;;;;;;;5.47;2.60;;;;;;;1.50;100.00;95947.34;4979836;28;20212;-69
2024/01/19 03:05:12;;;;;;;2.50;1.87;;;;;;;1.36;100.00;95941.66;4980973;28;20207;-69
2024/01/19 03:07:38;;;;;;;6.67;2.37;;;;;;;1.40;100.00;95946.47;4977953;28;20697;-69
2024/01/19 03:10:07;;;;;;;4.43;2.77;;;;;;;1.37;100.00;95943.31;4979470;28;20227;-69
2024/01/19 03:12:33;;;;;;;3.67;2.10;;;;;;;1.33;100.00;95953.13;4980725;28;20203;-69
2024/01/19 03:15:00;;;;;;;6.47;2.43;;;;;;;1.24;100.00;95958.28;4977701;28;20701;-69
2024/01/19 03:17:28;;;;;;;4.70;2.40;;;;;;;1.34;100.00;95957.38;4976440;28;20230;-69
2024/01/19 03:19:54;;;;;;;5.30;2.53;;;;;;;1.11;100.00;95962.00;4977353;28;20745;-69
2024/01/19 03:22:20;;;;;;;7.50;2.80;;;;;;;1.12;100.00;95963.66;4979656;28;20211;-69
2024/01/19 03:24:47;;;;;;;5.00;2.50;;;;;;;1.11;100.00;95960.25;4977773;28;20218;-69
2024/01/19 03:27:14;;;;;;;6.20;3.30;;;;;;;1.10;100.00;95965.56;4979457;28;20223;-69
2024/01/19 03:29:41;;;;;;;8.30;3.10;;;;;;;0.93;100.00;95963.50;4979053;28;21186;-69
2024/01/19 03:32:07;;;;;;;4.73;2.33;;;;;;;1.00;100.00;95967.25;4980224;28;20211;-69
2024/01/19 03:34:35;;;;;;;11.07;3.00;;;;;;;0.93;100.00;95964.34;4978681;28;20199;-69
2024/01/19 03:37:03;;;;;;;5.43;2.87;;;;;;;0.64;100.00;95963.31;4976999;28;20253;-69
2024/01/19 03:39:30;;;;;;;8.03;2.87;;;;;;;0.70;100.00;95967.16;4977517;28;20412;-69
2024/01/19 03:41:56;;;;;;;8.43;2.70;;;;;;;0.64;100.00;95973.66;4979958;28;20203;-69
2024/01/19 03:44:23;;;;;;;5.63;2.73;;;;;;;0.72;100.00;95966.09;4979434;28;20302;-69
2024/01/19 03:46:50;;;;;;;6.37;2.73;;;;;;;0.47;100.00;95970.81;4976930;28;20236;-69
2024/01/19 03:49:16;;;;;;;7.50;2.67;;;;;;;0.47;100.00;95978.59;4975102;28;20231;-69
2024/01/19 03:52:00;;;;;;;8.77;3.23;;;;;;;0.77;100.00;95978.69;4976774;28;20203;-69
2024/01/19 03:54:27;;;;;;;6.37;2.97;;;;;;;0.37;100.00;95982.00;4980466;28;20210;-69
2024/01/19 03:56:54;;;;;;;5.70;2.47;;;;;;;0.23;100.00;95980.53;4978224;28;20263;-69
2024/01/19 03:59:20;;;;;;;8.23;2.53;;;;;;;0.35;100.00;95987.31;4977809;28;20230;-69
2024/01/19 04:01:47;;;;;;;7.50;2.87;;;;;;;0.26;100.00;95987.25;4977797;28;20217;-69
2024/01/19 04:04:13;;;;;;;6.30;3.00;;;;;;;0.28;100.00;95990.50;4978992;28;20206;-69
2024/01/19 04:06:39;;;;;;;7.57;2.97;;;;;;;0.23;100.00;95980.53;4978585;28;20227;-69
2024/01/19 04:09:08;;;;;;;6.37;3.30;;;;;;;-0.14;100.00;95988.72;4979060;28;20594;-69
2024/01/19 04:11:34;;;;;;;5.80;3.27;;;;;;;-0.36;100.00;95983.53;4977244;28;20568;-69
2024/01/19 04:14:01;;;;;;;9.33;2.57;;;;;;;-0.35;100.00;95990.34;4978679;28;20214;-69
2024/01/19 04:16:27;;;;;;;8.13;3.30;;;;;;;-0.36;100.00;95988.69;4978173;28;20202;-69
2024/01/19 04:18:54;;;;;;;6.37;3.17;;;;;;;-0.46;100.00;95998.13;4976609;28;20205;-68
2024/01/19 04:21:20;;;;;;;9.00;3.20;;;;;;;-0.41;100.00;95995.19;4977933;28;20222;-69
2024/01/19 04:23:47;;;;;;;6.93;2.90;;;;;;;-0.41;100.00;95998.59;4977314;28;20202;-69
2024/01/19 04:26:15;;;;;;;8.97;3.50;;;;;;;-0.48;100.00;95994.81;4978287;28;20210;-69
2024/01/19 04:28:41;;;;;;;6.83;2.63;;;;;;;-0.53;100.00;95996.94;4979348;28;20578;-69
2024/01/19 04:31:07;;;;;;;7.77;3.37;;;;;;;-0.63;100.00;96000.34;4978703;28;20248;-69
2024/01/19 04:33:34;;;;;;;8.03;3.20;;;;;;;-0.57;100.00;95994.72;4977170;28;20603;-69
2024/01/19 04:36:01;;;;;;;7.37;3.07;;;;;;;-0.52;100.00;96006.34;4978589;28;20206;-69
2024/01/19 04:38:27;;;;;;;8.20;3.80;;;;;;;-0.41;100.00;96010.72;4977831;28;20727;-69
2024/01/19 04:40:54;;;;;;;6.97;3.30;;;;;;;-0.38;100.00;96020.81;4976321;28;20221;-69
2024/01/19 04:43:22;;;;;;;7.77;3.10;;;;;;;-0.39;100.00;96022.59;4979000;28;20212;-69
2024/01/19 04:45:49;;;;;;;9.40;4.03;;;;;;;-0.31;100.00;96024.59;4977091;28;20210;-69
2024/01/19 04:48:15;;;;;;;13.50;4.00;;;;;;;-0.29;100.00;96025.31;4976094;28;20230;-69
2024/01/19 04:50:42;;;;;;;9.23;4.33;;;;;;;-0.37;100.00;96036.25;4976135;28;20231;-69
2024/01/19 04:53:08;;;;;;;10.33;4.47;;;;;;;-0.51;100.00;96043.38;4978856;28;20251;-69
2024/01/19 04:55:35;;;;;;;7.27;3.83;;;;;;;-0.45;100.00;96054.09;4975806;28;20206;-69
2024/01/19 04:58:01;;;;;;;8.87;4.23;;;;;;;-0.51;100.00;96052.00;4977201;28;20230;-69
2024/01/19 05:00:29;;;;;;;10.40;4.80;;;;;;;-0.32;100.00;96054.00;4978150;28;21084;-69
2024/01/19 05:02:56;;;;;;;8.10;3.83;;;;;;;-0.55;100.00;96060.09;4975843;28;20708;-69
2024/01/19 05:05:22;;;;;;;7.30;3.37;;;;;;;-0.48;100.00;96048.34;4978991;28;20207;-69
2024/01/19 05:07:48;;;;;;;11.33;4.83;;;;;;;-0.45;100.00;96059.28;4977506;28;20235;-69
2024/01/19 05:10:15;;;;;;;10.30;4.27;;;;;;;-0.35;100.00;96060.25;4976775;28;20232;-69
2024/01/19 05:12:41;;;;;;;5.73;3.33;;;;;;;-0.68;100.00;96059.38;4978666;28;20218;-69
2024/01/19 05:15:09;;;;;;;12.60;4.90;;;;;;;-0.53;100.00;96058.22;4977177;28;20221;-69
2024/01/19 05:17:36;;;;;;;9.93;4.07;;;;;;;-0.47;100.00;96060.34;4974631;28;21212;-69
2024/01/19 05:20:03;;;;;;;11.50;5.10;;;;;;;-0.47;100.00;96068.09;4975884;28;20234;-69
2024/01/19 05:22:30;;;;;;;11.30;5.20;;;;;;;-0.49;100.00;96070.00;4979001;28;20292;-69
2024/01/19 05:24:56;;;;;;;11.13;4.83;;;;;;;-0.63;100.00;96070.19;4976811;28;20214;-69
2024/01/19 05:27:23;;;;;;;12.83;5.37;;;;;;;-0.63;100.00;96067.59;4977194;28;20236;-69
2024/01/19 05:29:49;;;;;;;16.30;5.30;;;;;;;-0.49;100.00;96085.53;4978234;28;20234;-69
2024/01/19 05:32:16;;;;;;;11.63;4.73;;;;;;;-0.51;100.00;96093.41;4977274;28;20210;-68
2024/01/19 05:34:45;;;;;;;14.87;6.33;;;;;;;-0.22;100.00;96099.78;4975635;28;21002;-69
2024/01/19 05:37:11;;;;;;;15.40;6.13;;;;;;;-0.31;100.00;96110.84;4977713;28;20239;-69
2024/01/19 05:39:37;;;;;;;19.17;6.87;;;;;;;-0.27;100.00;96109.66;4976844;28;20216;-69
2024/01/19 05:42:04;;;;;;;15.23;5.83;;;;;;;-0.16;100.00;96114.06;4977168;28;20226;-69
2024/01/19 05:44:31;;;;;;;15.73;6.97;;;;;;;-0.08;100.00;96122.06;4977288;28;20207;-69
2024/01/19 05:46:57;;;;;;;31.40;10.63;;;;;;;-0.05;100.00;96121.81;4975261;28;20229;-69
2024/01/19 05:49:24;;;;;;;55.73;25.97;;;;;;;-0.02;100.00;96127.59;4975080;28;20274;-69
2024/01/19 05:51:51;;;;;;;26.00;11.40;;;;;;;0.13;100.00;96127.25;4978682;28;20565;-69
2024/01/19 05:54:19;;;;;;;17.97;6.43;;;;;;;0.08;100.00;96137.13;4977649;28;20218;-69
2024/01/19 05:56:45;;;;;;;23.33;8.13;;;;;;;0.06;100.00;96135.59;4975342;28;20234;-69
2024/01/19 05:59:12;;;;;;;16.50;5.93;;;;;;;0.07;100.00;96148.44;4978465;28;20591;-69
2024/01/19 06:01:38;;;;;;;16.57;6.67;;;;;;;0.09;100.00;96148.34;4976798;28;20575;-69
2024/01/19 06:04:05;;;;;;;18.83;6.90;;;;;;;0.11;100.00;96144.66;4975161;28;20719;-69
2024/01/19 06:06:31;;;;;;;21.43;9.03;;;;;;;0.20;100.00;96156.09;4977121;28;20223;-69
2024/01/19 06:08:59;;;;;;;15.80;7.10;;;;;;;0.35;100.00;96152.34;4976157;28;20206;-69
2024/01/19 06:11:25;;;;;;;21.17;8.20;;;;;;;0.12;100.00;96153.28;4975626;28;20271;-69
2024/01/19 06:13:52;;;;;;;17.90;6.17;;;;;;;0.20;100.00;96156.09;4976524;28;20212;-69
2024/01/19 06:16:18;;;;;;;17.17;7.17;;;;;;;0.27;100.00;96165.06;4977151;28;20231;-69
2024/01/19 06:18:45;;;;;;;16.93;7.63;;;;;;;0.21;100.00;96170.72;4974607;28;20207;-69
2024/01/19 06:21:11;;;;;;;15.83;7.20;;;;;;;0.31;100.00;96180.25;4974772;28;20211;-69
2024/01/19 06:23:38;;;;;;;17.50;6.70;;;;;;;0.30;100.00;96178.59;4977256;28;20905;-69
2024/01/19 06:26:10;;;;;;;18.57;6.57;;;;;;;0.60;100.00;96184.84;4975415;28;20217;-69
2024/01/19 06:28:36;;;;;;;17.53;7.57;;;;;;;0.41;100.00;96185.53;4978213;28;20223;-69
2024/01/19 06:31:03;;;;;;;17.20;7.57;;;;;;;0.36;100.00;96182.50;4980051;28;20231;-69
2024/01/19 06:33:30;;;;;;;20.97;7.53;;;;;;;0.41;100.00;96185.53;4979353;28;20207;-69
2024/01/19 06:35:56;;;;;;;24.50;9.23;;;;;;;0.48;100.00;96189.34;4980465;28;20208;-69
2024/01/19 06:38:23;;;;;;;24.73;8.97;;;;;;;0.41;100.00;96188.97;4981584;28;20238;-69
2024/01/19 06:40:49;;;;;;;15.23;6.10;;;;;;;0.39;100.00;96188.25;4979415;28;20297;-69
2024/01/19 06:43:17;;;;;;;19.63;7.63;;;;;;;0.46;100.00;96202.41;4980192;28;20210;-69
2024/01/19 06:45:44;;;;;;;22.27;7.93;;;;;;;0.46;100.00;96199.81;4980511;28;20749;-69
2024/01/19 06:48:10;;;;;;;21.73;7.67;;;;;;;0.48;100.00;96216.06;4978073;28;20230;-69
2024/01/19 06:50:37;;;;;;;26.77;9.33;;;;;;;0.40;100.00;96210.66;4978352;28;20242;-69
2024/01/19 06:53:06;;;;;;;22.83;8.27;;;;;;;0.44;100.00;96217.25;4980995;28;20863;-69
2024/01/19 06:55:33;;;;;;;19.13;7.73;;;;;;;0.33;100.00;96222.44;4980000;28;20652;-69
2024/01/19 06:57:59;;;;;;;17.83;7.97;;;;;;;0.23;100.00;96231.84;4977409;28;20244;-69
2024/01/19 07:00:27;;;;;;;21.13;7.97;;;;;;;0.37;100.00;96233.38;4979992;28;20210;-69
2024/01/19 07:02:54;;;;;;;22.20;8.30;;;;;;;0.19;100.00;96234.75;4979215;28;20210;-69
2024/01/19 07:05:21;;;;;;;19.43;6.93;;;;;;;0.18;100.00;96240.91;4979600;28;20206;-69
2024/01/19 07:07:47;;;;;;;22.67;7.20;;;;;;;0.16;100.00;96245.34;4978494;28;20238;-69
2024/01/19 07:10:14;;;;;;;24.70;8.90;;;;;;;0.12;100.00;96242.16;4978429;28;20225;-69
2024/01/19 07:12:40;;;;;;;22.30;8.40;;;;;;;0.24;100.00;96251.63;4977773;28;20214;-69
2024/01/19 07:15:08;;;;;;;23.13;8.53;;;;;;;0.25;100.00;96263.63;4980653;28;20215;-69
2024/01/19 07:17:35;;;;;;;25.87;10.20;;;;;;;0.31;100.00;96268.34;4978166;28;20227;-69
2024/01/19 07:20:04;;;;;;;21.13;8.47;;;;;;;0.11;100.00;96273.38;4977203;28;20206;-69
2024/01/19 07:22:31;;;;;;;16.97;7.67;;;;;;;0.21;100.00;96277.75;4980630;28;20731;-69
2024/01/19 07:24:58;;;;;;;20.30;8.20;;;;;;;0.26;100.00;96278.22;4979642;28;20211;-69
2024/01/19 07:27:23;;;;;;;23.63;8.03;;;;;;;0.38;100.00;96276.50;4978050;28;20224;-69
2024/01/19 07:29:50;;;;;;;18.60;8.33;;;;;;;0.41;100.00;96291.81;4978847;28;20237;-69
2024/01/19 07:32:19;;;;;;;23.43;9.27;;;;;;;0.41;100.00;96296.97;4978617;28;20242;-69
2024/01/19 07:34:47;;;;;;;21.23;9.13;;;;;;;0.35;100.00;96302.66;4977742;28;20210;-69
2024/01/19 07:37:13;;;;;;;20.23;8.77;;;;;;;0.12;100.00;96301.75;4978639;28;20735;-69
2024/01/19 07:39:40;;;;;;;17.97;7.70;;;;;;;0.36;100.00;96309.50;4979574;28;20207;-69
2024/01/19 07:42:06;;;;;;;15.20;7.30;;;;;;;0.34;100.00;96306.97;4977879;28;20222;-69
2024/01/19 07:44:32;;;;;;;25.10;9.47;;;;;;;0.35;100.00;96310.41;4978604;28;20216;-69
2024/01/19 07:46:59;;;;;;;21.73;8.30;;;;;;;0.32;100.00;96308.88;4978415;28;20234;-69
2024/01/19 07:49:25;;;;;;;20.43;8.43;;;;;;;0.42;100.00;96314.19;4977292;28;20203;-69
2024/01/19 07:51:53;;;;;;;20.77;8.40;;;;;;;0.63;100.00;96322.00;4978923;28;20231;-69
2024/01/19 07:54:20;;;;;;;20.63;8.20;;;;;;;0.57;100.00;96326.03;4978995;28;20203;-69
2024/01/19 07:56:47;;;;;;;21.57;9.57;;;;;;;0.61;100.00;96320.47;4977105;28;20237;-69
2024/01/19 07:59:13;;;;;;;21.07;7.57;;;;;;;0.59;100.00;96328.38;4979285;28;20575;-69
2024/01/19 08:01:40;;;;;;;18.70;7.17;;;;;;;0.52;100.00;96336.72;4980033;28;20585;-69
2024/01/19 08:04:07;;;;;;;16.83;7.90;;;;;;;0.46;100.00;96334.59;4977664;28;20211;-69
2024/01/19 08:06:33;;;;;;;17.77;7.60;;;;;;;0.54;100.00;96350.41;4978679;28;20254;-69
2024/01/19 08:09:01;;;;;;;19.93;7.57;;;;;;;0.78;100.00;96345.97;4979833;28;20352;-69
2024/01/19 08:11:27;;;;;;;34.43;9.33;;;;;;;0.57;100.00;96352.75;4978692;28;20258;-70
2024/01/19 08:13:54;;;;;;;27.07;9.83;;;;;;;0.78;100.00;96356.34;4977482;28;20214;-69
2024/01/19 08:16:20;;;;;;;42.70;8.67;;;;;;;0.58;100.00;96366.56;4978820;28;20214;-70
2024/01/19 08:18:47;;;;;;;22.83;8.97;;;;;;;0.59;100.00;96366.44;4976219;28;20223;-69
2024/01/19 08:21:13;;;;;;;25.40;8.90;;;;;;;0.49;100.00;96367.25;4976517;28;20981;-69
2024/01/19 08:23:40;;;;;;;22.30;8.60;;;;;;;0.85;100.00;96373.94;4979007;28;20599;-69
2024/01/19 08:26:08;;;;;;;18.63;7.03;;;;;;;1.05;100.00;96385.41;4977571;28;20693;-70
2024/01/19 08:28:35;;;;;;;18.30;8.13;;;;;;;0.99;100.00;96385.84;4978568;28;20250;-69
2024/01/19 08:31:02;;;;;;;20.40;8.20;;;;;;;1.11;100.00;96392.69;4977512;28;20317;-69
2024/01/19 08:33:28;;;;;;;21.40;9.53;;;;;;;1.13;100.00;96390.81;4978724;28;20204;-69
2024/01/19 08:35:55;;;;;;;21.20;8.23;;;;;;;1.27;100.00;96409.56;4975916;28;20276;-69
2024/01/19 08:38:22;;;;;;;18.47;7.60;;;;;;;1.28;100.00;96406.03;4979235;28;21457;-69
2024/01/19 08:40:48;;;;;;;22.10;8.87;;;;;;;0.95;100.00;96402.59;4978298;28;20666;-69
2024/01/19 08:43:16;;;;;;;20.80;8.47;;;;;;;1.19;100.00;96405.94;4976681;28;20322;-69
2024/01/19 08:45:42;;;;;;;17.97;8.07;;;;;;;1.10;100.00;96410.03;4978850;28;20207;-69
2024/01/19 08:48:09;;;;;;;19.90;8.13;;;;;;;1.18;100.00;96419.84;4976245;28;20229;-69
2024/01/19 08:50:35;;;;;;;21.60;8.13;;;;;;;1.24;100.00;96420.19;4976869;28;20728;-69
2024/01/19 08:53:03;;;;;;;20.93;7.63;;;;;;;1.36;100.00;96421.84;4976902;28;20554;-69
2024/01/19 08:55:29;;;;;;;22.33;8.37;;;;;;;1.09;100.00;96429.13;4977251;28;20211;-69
2024/01/19 08:57:56;;;;;;;22.60;8.63;;;;;;;1.11;100.00;96429.00;4976801;28;20223;-69
2024/01/19 09:00:24;;;;;;;16.87;7.37;;;;;;;1.24;100.00;96436.59;4977825;28;20227;-69
2024/01/19 09:02:50;;;;;;;21.47;8.10;;;;;;;1.19;100.00;96447.47;4978209;28;20991;-69
2024/01/19 09:05:17;;;;;;;17.47;6.87;;;;;;;1.00;100.00;96447.19;4976244;28;20214;-69
2024/01/19 09:07:43;;;;;;;31.40;9.80;;;;;;;1.26;100.00;96452.88;4976310;28;20748;-69
2024/01/19 09:10:10;;;;;;;19.43;7.87;;;;;;;1.19;100.00;96464.66;4978015;28;21044;-69
2024/01/19 09:12:37;;;;;;;26.93;9.10;;;;;;;1.32;100.00;96461.97;4977971;28;20227;-69
2024/01/19 09:15:04;;;;;;;21.40;7.90;;;;;;;1.42;100.00;96460.34;4977346;28;20222;-69
2024/01/19 09:17:32;;;;;;;15.03;6.90;;;;;;;1.66;100.00;96467.06;4976980;28;20219;-69
2024/01/19 09:19:59;;;;;;;19.93;8.10;;;;;;;1.55;100.00;96472.25;4975410;28;20673;-69
2024/01/19 09:22:25;;;;;;;17.77;7.00;;;;;;;1.64;100.00;96476.75;4978089;28;21148;-69
2024/01/19 09:24:53;;;;;;;18.60;6.77;;;;;;;1.62;100.00;96480.44;4978723;28;20213;-69
2024/01/19 09:27:19;;;;;;;15.23;6.83;;;;;;;1.55;100.00;96487.00;4976043;28;20231;-69
2024/01/19 09:29:47;;;;;;;20.53;8.53;;;;;;;1.37;100.00;96494.41;4977970;28;20210;-69
2024/01/19 09:32:16;;;;;;;18.70;7.33;;;;;;;1.31;100.00;96504.44;4977788;28;20685;-69
2024/01/19 09:34:44;;;;;;;18.17;7.07;;;;;;;1.19;100.00;96511.38;4977492;28;20242;-69
2024/01/19 09:37:11;;;;;;;21.13;8.20;;;;;;;1.37;100.00;96510.00;4975154;28;20230;-69
2024/01/19 09:39:37;;;;;;;16.90;6.93;;;;;;;1.22;100.00;96508.56;4978048;28;20204;-69
2024/01/19 09:42:07;;;;;;;20.07;8.50;;;;;;;1.25;100.00;96521.31;4977119;28;20366;-69
2024/01/19 09:44:35;;;;;;;19.00;6.93;;;;;;;1.40;100.00;96530.56;4976216;28;20584;-69
2024/01/19 09:47:17;;;;;;;20.50;8.17;;;;;;;1.56;100.00;96530.22;4976545;28;20224;-68
2024/01/19 09:49:58;;;;;;;18.97;7.80;;;;;;;1.56;100.00;96533.63;4977320;28;20204;-69
2024/01/19 09:52:42;;;;;;;17.60;7.20;;;;;;;1.64;100.00;96546.84;4976941;28;20230;-68
2024/01/19 09:55:10;;;;;;;15.53;7.50;;;;;;;1.68;100.00;96540.50;4975634;28;21326;-68
2024/01/19 09:57:43;;;;;;;17.87;7.57;;;;;;;1.74;100.00;96549.59;4977501;28;20303;-69
2024/01/19 10:00:12;;;;;;;15.40;6.63;;;;;;;1.76;100.00;96548.53;4976944;28;20207;-69
2024/01/19 10:02:44;;;;;;;15.47;7.27;;;;;;;2.09;100.00;96551.16;4978186;28;20203;-69
2024/01/19 10:05:13;;;;;;;19.17;6.43;;;;;;;2.07;100.00;96558.25;4977005;28;20199;-68
2024/01/19 10:07:42;;;;;;;14.30;5.67;;;;;;;2.28;100.00;96557.41;4977770;28;20270;-69
2024/01/19 10:10:09;;;;;;;16.87;7.07;;;;;;;2.04;100.00;96558.50;4975276;28;20256;-69
2024/01/19 10:12:36;;;;;;;16.90;6.97;;;;;;;1.81;100.00;96549.84;4976562;28;20598;-69
2024/01/19 10:15:02;;;;;;;17.70;6.87;;;;;;;1.89;100.00;96554.47;4977610;28;20642;-69
2024/01/19 10:17:29;;;;;;;15.30;6.87;;;;;;;2.19;100.00;96557.28;4974905;28;20227;-68
2024/01/19 10:19:58;;;;;;;14.23;5.93;;;;;;;2.45;100.00;96552.53;4975297;28;20204;-68
2024/01/19 10:22:27;;;;;;;11.43;5.77;;;;;;;2.59;100.00;96554.06;4977078;28;20206;-69
2024/01/19 10:25:02;;;;;;;13.20;5.70;;;;;;;2.20;100.00;96569.34;4975919;28;20199;-69
2024/01/19 10:27:44;;;;;;;14.17;5.30;;;;;;;2.09;100.00;96566.75;4976537;28;20307;-69
2024/01/19 10:30:13;;;;;;;14.93;5.87;;;;;;;2.37;100.00;96564.50;4975838;28;20208;-69
2024/01/19 10:32:40;;;;;;;10.70;4.20;;;;;;;2.34;100.00;96566.50;4977081;28;20226;-68
2024/01/19 10:35:09;;;;;;;11.07;5.13;;;;;;;2.54;100.00;96570.00;4974996;28;21347;-69
2024/01/19 10:37:37;;;;;;;9.57;3.90;;;;;;;2.53;100.00;96577.94;4977337;28;20242;-68
2024/01/19 10:40:21;;;;;;;10.27;4.93;;;;;;;2.47;100.00;96576.66;4976842;28;20200;-69
2024/01/19 10:42:50;;;;;;;11.20;4.77;;;;;;;2.41;100.00;96581.50;4975821;28;20287;-69
2024/01/19 10:45:21;;;;;;;8.47;4.37;;;;;;;2.68;100.00;96574.94;4977105;28;20206;-69
2024/01/19 10:47:50;;;;;;;9.70;4.47;;;;;;;2.56;100.00;96577.72;4974615;28;20584;-69
2024/01/19 10:50:17;;;;;;;13.10;4.37;;;;;;;2.35;100.00;96579.38;4975337;28;20665;-69
2024/01/19 10:52:47;;;;;;;9.33;3.87;;;;;;;2.02;100.00;96576.78;4976261;28;20233;-69
2024/01/19 10:55:21;;;;;;;8.30;3.97;;;;;;;2.44;100.00;96579.50;4975185;28;20704;-69
2024/01/19 10:57:51;;;;;;;7.53;3.20;;;;;;;2.51;100.00;96578.06;4975888;28;20237;-69
2024/01/19 11:00:22;;;;;;;14.37;3.87;;;;;;;2.57;100.00;96580.19;4974956;28;20199;-69
2024/01/19 11:02:51;;;;;;;9.50;4.37;;;;;;;2.75;100.00;96583.94;4976860;28;20210;-69
2024/01/19 11:05:19;;;;;;;9.30;4.20;;;;;;;2.75;100.00;96588.31;4975538;28;20212;-69
2024/01/19 11:07:47;;;;;;;7.80;3.30;;;;;;;2.97;99.11;96586.47;4974279;28;20733;-70
2024/01/19 11:10:14;;;;;;;7.80;4.00;;;;;;;2.69;97.51;96583.59;4976188;28;20208;-70
2024/01/19 11:12:48;;;;;;;9.63;3.73;;;;;;;3.10;92.77;96587.16;4977246;28;20688;-70
2024/01/19 11:15:26;;;;;;;7.50;3.33;;;;;;;3.11;92.83;96591.41;4976328;28;20690;-69
2024/01/19 11:17:54;;;;;;;9.23;3.67;;;;;;;3.21;91.67;96582.72;4977973;28;20223;-69
2024/01/19 11:20:23;;;;;;;8.77;3.03;;;;;;;2.87;92.31;96582.16;4979889;28;21026;-69
2024/01/19 11:22:51;;;;;;;4.40;2.47;;;;;;;3.04;86.54;96585.03;4979275;28;20295;-69
2024/01/19 11:25:23;;;;;;;6.80;3.40;;;;;;;2.95;84.65;96580.56;4979020;28;20690;-69
2024/01/19 11:27:58;;;;;;;6.43;3.17;;;;;;;2.88;88.47;96583.78;4979806;28;20230;-69
2024/01/19 11:30:39;;;;;;;7.50;2.87;;;;;;;2.97;92.74;96583.06;4978993;28;20201;-69